Time;durP1;ratioP1;P1;durP2;ratioP2;P2;SDS_P1;SDS_P2;PMS_P1;PMS_P2;Temp;Humidity;BMP_temperature;BMP_pressure;BME280_temperature;BME280_humidity;BME280_pressure;Samples;Min_cycle;Max_cycle;Signal;HPM_P1;HPM_P2
2024/02/23 00:00:50;;;;;;;7.87;3.50;;;;;;;7.99;100.00;101102.53;2087517;28;20199;-67
2024/02/23 00:01:51;;;;;;;5.60;3.47;;;;;;;7.99;100.00;101116.34;2088168;28;20190;-67
2024/02/23 00:02:53;;;;;;;7.35;3.50;;;;;;;8.01;100.00;101105.69;2088091;28;20196;-67
2024/02/23 00:03:55;;;;;;;6.43;3.10;;;;;;;7.59;100.00;101036.94;2088623;28;20177;-67
2024/02/23 00:04:56;;;;;;;7.43;3.53;;;;;;;8.07;100.00;101101.28;2087758;28;20181;-67
2024/02/23 00:05:58;;;;;;;6.00;3.37;;;;;;;8.08;100.00;101100.91;2088411;28;20198;-67
2024/02/23 00:06:59;;;;;;;10.70;3.67;;;;;;;7.94;100.00;101067.84;2087645;28;20628;-67
2024/02/23 00:07:59;;;;;;;5.50;3.17;;;;;;;8.06;100.00;101083.16;2088036;28;20259;-67
2024/02/23 00:09:00;;;;;;;6.03;2.90;;;;;;;6.74;100.00;100879.47;2088381;28;20189;-67
2024/02/23 00:10:01;;;;;;;6.03;3.33;;;;;;;8.14;100.00;101088.25;2095751;28;20267;-67
2024/02/23 00:11:01;;;;;;;5.53;3.60;;;;;;;8.09;100.00;101085.91;2095998;28;20182;-67
2024/02/23 00:12:02;;;;;;;6.13;3.20;;;;;;;8.26;100.00;101101.59;2088575;28;20180;-67
2024/02/23 00:13:02;;;;;;;10.83;3.97;;;;;;;7.76;100.00;101008.47;2086214;28;20255;-67
2024/02/23 00:14:03;;;;;;;6.77;2.87;;;;;;;7.04;100.00;100906.47;2087779;28;20195;-67
2024/02/23 00:15:04;;;;;;;10.07;3.93;;;;;;;7.86;100.00;101024.97;2088093;28;20194;-67
2024/02/23 00:16:05;;;;;;;4.50;3.20;;;;;;;8.39;100.00;101093.59;2087399;28;20463;-67
2024/02/23 00:17:05;;;;;;;8.53;3.90;;;;;;;8.42;100.00;101095.56;2088134;28;20186;-67
2024/02/23 00:18:06;;;;;;;8.43;3.33;;;;;;;8.43;100.00;101100.69;2089139;28;20674;-67
2024/02/23 00:19:10;;;;;;;6.37;3.90;;;;;;;8.47;100.00;101098.69;2087784;28;20188;-67
2024/02/23 00:20:11;;;;;;;9.77;3.60;;;;;;;8.45;100.00;101086.47;2087925;28;20264;-67
2024/02/23 00:21:11;;;;;;;6.17;3.47;;;;;;;8.51;100.00;101093.91;2088251;28;20206;-67
2024/02/23 00:22:12;;;;;;;7.43;3.30;;;;;;;8.48;100.00;101091.97;2087731;28;20259;-67
2024/02/23 00:23:12;;;;;;;9.20;3.77;;;;;;;8.50;100.00;101097.88;2087502;28;20188;-67
2024/02/23 00:24:13;;;;;;;7.87;3.83;;;;;;;8.49;100.00;101096.31;2088612;28;20177;-67
2024/02/23 00:25:14;;;;;;;5.53;2.90;;;;;;;8.41;100.00;101086.47;2087784;28;20198;-68
2024/02/23 00:26:14;;;;;;;4.40;2.87;;;;;;;7.86;100.00;101010.38;2087951;28;20185;-66
2024/02/23 00:27:15;;;;;;;7.20;3.83;;;;;;;8.40;100.00;101095.97;2088064;28;20229;-67
2024/02/23 00:28:15;;;;;;;5.50;3.07;;;;;;;8.45;100.00;101087.25;2087861;28;20192;-67
2024/02/23 00:29:16;;;;;;;5.63;3.33;;;;;;;8.43;100.00;101103.44;2094655;28;20722;-67
2024/02/23 00:30:16;;;;;;;7.17;3.73;;;;;;;8.17;100.00;101064.56;2096708;28;20178;-67
2024/02/23 00:31:17;;;;;;;5.13;3.50;;;;;;;8.19;100.00;101064.94;2088407;28;20704;-67
2024/02/23 00:32:17;;;;;;;7.63;3.33;;;;;;;8.39;100.00;101099.13;2087360;28;20241;-67
2024/02/23 00:33:18;;;;;;;7.13;3.20;;;;;;;8.40;100.00;101101.50;2087863;28;20606;-67
2024/02/23 00:34:18;;;;;;;6.63;3.47;;;;;;;8.40;100.00;101100.72;2087905;28;20681;-67
2024/02/23 00:35:19;;;;;;;7.07;3.17;;;;;;;8.42;100.00;101088.09;2088147;28;20188;-67
2024/02/23 00:36:20;;;;;;;7.10;3.87;;;;;;;8.41;100.00;101097.53;2088901;28;20318;-68
2024/02/23 00:37:20;;;;;;;5.20;3.37;;;;;;;8.35;100.00;101085.34;2087894;28;20228;-67
2024/02/23 00:38:21;;;;;;;6.70;3.47;;;;;;;8.48;100.00;101093.94;2087579;28;20203;-67
2024/02/23 00:39:21;;;;;;;5.00;3.03;;;;;;;7.49;100.00;100938.50;2087569;28;20181;-67
2024/02/23 00:40:23;;;;;;;7.30;3.33;;;;;;;8.50;100.00;101095.09;2087695;28;20214;-67
2024/02/23 00:41:24;;;;;;;5.63;3.33;;;;;;;8.52;100.00;101103.00;2088289;28;20657;-67
2024/02/23 00:42:24;;;;;;;7.70;3.60;;;;;;;8.23;100.00;101052.72;2089010;28;20800;-67
2024/02/23 00:43:25;;;;;;;5.97;3.40;;;;;;;8.53;100.00;101097.06;2088439;28;20195;-67
2024/02/23 00:44:25;;;;;;;7.67;3.57;;;;;;;8.48;100.00;101105.78;2086060;28;20199;-67
2024/02/23 00:45:26;;;;;;;8.90;3.83;;;;;;;8.49;100.00;101099.06;2087481;28;20192;-66
2024/02/23 00:46:26;;;;;;;6.80;2.83;;;;;;;8.49;100.00;101109.31;2087060;28;20236;-67
2024/02/23 00:47:27;;;;;;;6.27;2.90;;;;;;;8.47;100.00;101106.19;2088023;28;20185;-67
2024/02/23 00:48:28;;;;;;;7.70;3.30;;;;;;;8.47;100.00;101103.41;2089100;28;20178;-66
2024/02/23 00:49:28;;;;;;;9.20;3.43;;;;;;;8.45;100.00;101112.09;2087963;28;20442;-67
2024/02/23 00:50:29;;;;;;;5.30;3.07;;;;;;;8.51;100.00;101106.94;2087649;28;20207;-67
2024/02/23 00:51:29;;;;;;;8.93;3.50;;;;;;;8.41;100.00;101103.06;2087732;28;20187;-66
2024/02/23 00:52:30;;;;;;;5.10;3.47;;;;;;;8.41;100.00;101113.34;2087384;28;20191;-67
2024/02/23 00:53:31;;;;;;;5.97;3.20;;;;;;;8.41;100.00;101116.88;2087846;28;20203;-67
2024/02/23 00:54:32;;;;;;;5.13;2.90;;;;;;;8.35;100.00;101107.44;2088010;28;20190;-67
2024/02/23 00:55:32;;;;;;;7.00;3.03;;;;;;;8.27;100.00;101110.66;2087868;28;20203;-66
2024/02/23 00:56:33;;;;;;;6.80;3.60;;;;;;;8.22;100.00;101105.56;2087431;28;20237;-67
2024/02/23 00:57:35;;;;;;;5.65;3.03;;;;;;;8.03;100.00;101104.09;2087927;28;20662;-67
2024/02/23 00:58:36;;;;;;;6.22;3.78;;;;;;;8.21;100.00;101101.25;2088012;28;20607;-67
2024/02/23 00:59:36;;;;;;;6.67;3.60;;;;;;;8.03;100.00;101084.75;2086808;28;20178;-67
2024/02/23 01:00:37;;;;;;;6.40;3.70;;;;;;;8.16;100.00;101107.94;2089152;28;20185;-67
2024/02/23 01:01:37;;;;;;;7.20;2.80;;;;;;;7.31;100.00;100979.97;2087848;28;20191;-67
2024/02/23 01:02:38;;;;;;;5.70;3.43;;;;;;;8.05;100.00;101103.69;2088113;28;20180;-66
2024/02/23 01:03:39;;;;;;;9.10;3.53;;;;;;;7.92;100.00;101092.31;2087438;28;20282;-67
2024/02/23 01:04:39;;;;;;;7.07;4.17;;;;;;;8.07;100.00;101101.28;2087305;28;20426;-67
2024/02/23 01:05:42;;;;;;;4.23;3.00;;;;;;;7.95;100.00;101091.50;2086836;28;20703;-67
2024/02/23 01:06:42;;;;;;;9.00;3.80;;;;;;;7.98;100.00;101101.75;2088625;28;20177;-67
2024/02/23 01:07:43;;;;;;;6.80;3.17;;;;;;;8.02;100.00;101099.75;2088134;28;20962;-67
2024/02/23 01:08:44;;;;;;;5.53;3.10;;;;;;;7.99;100.00;101089.50;2087706;28;20683;-66
2024/02/23 01:09:44;;;;;;;5.10;3.20;;;;;;;8.00;100.00;101091.06;2087670;28;20585;-67
2024/02/23 01:10:45;;;;;;;5.70;3.00;;;;;;;8.01;100.00;101092.66;2087394;28;20187;-66
2024/02/23 01:11:46;;;;;;;7.07;3.40;;;;;;;7.04;100.00;100931.25;2087493;28;20201;-66
2024/02/23 01:12:46;;;;;;;4.23;3.07;;;;;;;8.02;100.00;101077.69;2088738;28;20660;-67
2024/02/23 01:13:47;;;;;;;7.93;3.40;;;;;;;8.13;100.00;101094.16;2087735;28;20796;-66
2024/02/23 01:14:48;;;;;;;7.23;3.80;;;;;;;8.14;100.00;101088.25;2086693;28;20182;-67
2024/02/23 01:15:49;;;;;;;8.63;3.50;;;;;;;8.13;100.00;101080.34;2086775;28;20668;-67
2024/02/23 01:16:49;;;;;;;7.20;3.60;;;;;;;8.11;100.00;101069.72;2095845;28;21071;-66
2024/02/23 01:17:50;;;;;;;8.03;3.17;;;;;;;8.14;100.00;101065.34;2094996;28;20186;-67
2024/02/23 01:18:50;;;;;;;10.20;3.83;;;;;;;8.26;100.00;101085.00;2088815;28;21364;-67
2024/02/23 01:19:51;;;;;;;7.73;3.43;;;;;;;8.30;100.00;101082.25;2087259;28;20318;-67
2024/02/23 01:20:52;;;;;;;6.60;3.90;;;;;;;8.34;100.00;101083.78;2087484;28;20217;-67
2024/02/23 01:21:59;;;;;;;7.60;3.50;;;;;;;8.36;100.00;101078.63;2086897;28;20457;-66
2024/02/23 01:23:00;;;;;;;8.37;3.63;;;;;;;8.35;100.00;101070.78;2087675;28;20191;-67
2024/02/23 01:24:00;;;;;;;7.13;3.30;;;;;;;8.33;100.00;101062.09;2087801;28;20955;-67
2024/02/23 01:25:01;;;;;;;9.07;3.80;;;;;;;8.43;100.00;101075.84;2088049;28;20550;-67
2024/02/23 01:26:02;;;;;;;4.97;3.50;;;;;;;8.07;100.00;101018.50;2088042;28;20188;-67
2024/02/23 01:27:03;;;;;;;8.43;4.03;;;;;;;8.42;100.00;101077.03;2086779;28;20650;-67
2024/02/23 01:28:04;;;;;;;6.47;2.90;;;;;;;8.41;100.00;101071.91;2087367;28;20434;-67
2024/02/23 01:29:04;;;;;;;7.67;3.80;;;;;;;8.44;100.00;101080.16;2087682;28;20191;-67
2024/02/23 01:30:05;;;;;;;8.20;3.40;;;;;;;8.46;100.00;101071.47;2087583;28;20176;-67
2024/02/23 01:31:10;;;;;;;7.47;3.93;;;;;;;8.38;100.00;101067.19;2087751;28;20251;-66
2024/02/23 01:32:11;;;;;;;7.27;4.23;;;;;;;8.39;100.00;101083.34;2088786;28;20424;-67
2024/02/23 01:33:11;;;;;;;7.10;3.63;;;;;;;8.35;100.00;101081.81;2087468;28;20453;-67
2024/02/23 01:34:12;;;;;;;7.10;4.33;;;;;;;7.89;100.00;100993.00;2085823;28;20188;-67
2024/02/23 01:35:12;;;;;;;7.53;3.83;;;;;;;7.47;100.00;100927.06;2087639;28;20195;-67
2024/02/23 01:36:13;;;;;;;8.63;3.80;;;;;;;8.44;100.00;101076.59;2087378;28;20199;-66
2024/02/23 01:37:13;;;;;;;6.33;3.43;;;;;;;8.04;100.00;101011.03;2087607;28;20223;-67
2024/02/23 01:38:20;;;;;;;7.00;3.90;;;;;;;7.76;100.00;100967.06;2088696;28;20183;-67
2024/02/23 01:39:21;;;;;;;7.40;3.90;;;;;;;8.41;100.00;101074.66;2086565;28;20186;-67
2024/02/23 01:40:21;;;;;;;9.00;4.03;;;;;;;8.40;100.00;101076.63;2087764;28;20470;-67
2024/02/23 01:41:22;;;;;;;8.77;3.83;;;;;;;8.43;100.00;101070.31;2087343;28;20197;-67
2024/02/23 01:42:23;;;;;;;6.50;3.77;;;;;;;8.03;100.00;101006.69;2087767;28;20197;-66
2024/02/23 01:43:24;;;;;;;5.10;3.33;;;;;;;8.41;100.00;101067.16;2087022;28;20418;-67
2024/02/23 01:44:25;;;;;;;6.83;4.13;;;;;;;8.41;100.00;101071.91;2088299;28;20957;-67
2024/02/23 01:45:26;;;;;;;12.67;3.93;;;;;;;8.45;100.00;101070.69;2087449;28;20183;-67
2024/02/23 01:46:26;;;;;;;15.73;4.97;;;;;;;8.42;100.00;101065.97;2086352;28;20187;-67
2024/02/23 01:47:29;;;;;;;8.07;4.43;;;;;;;8.30;100.00;101069.22;2087701;28;20442;-67
2024/02/23 01:48:33;;;;;;;6.67;4.13;;;;;;;8.31;100.00;101062.50;2086436;28;20200;-67
2024/02/23 01:49:35;;;;;;;11.73;3.97;;;;;;;8.29;100.00;101050.28;2086541;28;20833;-67
2024/02/23 01:50:37;;;;;;;7.07;4.13;;;;;;;8.36;100.00;101062.06;2087314;28;20418;-67
2024/02/23 01:51:37;;;;;;;7.37;3.67;;;;;;;8.38;100.00;101061.66;2088427;28;20790;-67
2024/02/23 01:52:38;;;;;;;7.00;3.43;;;;;;;8.15;100.00;101020.78;2087901;28;20756;-67
2024/02/23 01:53:39;;;;;;;9.07;4.13;;;;;;;8.39;100.00;101061.25;2087737;28;20253;-67
2024/02/23 01:54:39;;;;;;;8.43;3.87;;;;;;;8.26;100.00;101051.13;2087648;28;20688;-67
2024/02/23 01:55:45;;;;;;;8.40;4.37;;;;;;;8.30;100.00;101058.16;2087203;28;20309;-67
2024/02/23 01:56:46;;;;;;;9.83;4.07;;;;;;;8.33;100.00;101057.38;2087867;28;20198;-67
2024/02/23 01:57:47;;;;;;;6.70;3.93;;;;;;;8.17;100.00;101036.94;2088533;28;20565;-68
2024/02/23 01:58:49;;;;;;;5.60;3.23;;;;;;;7.58;100.00;100925.06;2087248;28;20436;-67
2024/02/23 01:59:50;;;;;;;6.57;3.63;;;;;;;8.41;100.00;101056.09;2087181;28;20470;-67
2024/02/23 02:00:50;;;;;;;7.83;4.40;;;;;;;8.37;100.00;101058.13;2087413;28;20447;-66
2024/02/23 02:01:51;;;;;;;6.70;3.97;;;;;;;8.39;100.00;101050.22;2087302;28;20191;-67
2024/02/23 02:02:51;;;;;;;7.47;4.10;;;;;;;8.40;100.00;101054.53;2086898;28;20271;-66
2024/02/23 02:03:52;;;;;;;7.57;3.90;;;;;;;8.37;100.00;101052.63;2088429;28;20446;-67
2024/02/23 02:04:52;;;;;;;7.03;4.00;;;;;;;8.35;100.00;101045.94;2087532;28;20192;-67
2024/02/23 02:05:56;;;;;;;7.70;3.70;;;;;;;8.38;100.00;101054.19;2087377;28;20738;-67
2024/02/23 02:06:59;;;;;;;7.53;3.03;;;;;;;8.41;100.00;101063.63;2087788;28;20864;-66
2024/02/23 02:08:00;;;;;;;7.53;4.53;;;;;;;7.57;100.00;100927.03;2087580;28;20196;-67
2024/02/23 02:09:01;;;;;;;7.20;3.50;;;;;;;8.39;100.00;101052.97;2086743;28;20434;-67
2024/02/23 02:10:03;;;;;;;10.30;4.23;;;;;;;8.39;100.00;101057.69;2086558;28;20421;-66
2024/02/23 02:11:04;;;;;;;9.50;3.67;;;;;;;8.36;100.00;101047.50;2088429;28;20189;-66
2024/02/23 02:12:04;;;;;;;7.37;3.70;;;;;;;8.36;100.00;101044.72;2087472;28;20536;-67
2024/02/23 02:13:05;;;;;;;6.90;4.13;;;;;;;8.31;100.00;101048.69;2087459;28;20195;-67
2024/02/23 02:14:06;;;;;;;6.37;3.57;;;;;;;8.28;100.00;101043.19;2086750;28;20579;-67
2024/02/23 02:15:07;;;;;;;7.27;3.80;;;;;;;8.30;100.00;101046.34;2086632;28;20564;-66
2024/02/23 02:16:08;;;;;;;5.77;3.37;;;;;;;8.28;100.00;101048.72;2087523;28;20652;-67
2024/02/23 02:17:08;;;;;;;11.63;3.80;;;;;;;8.22;100.00;101045.63;2088495;28;20186;-67
2024/02/23 02:18:09;;;;;;;8.83;3.90;;;;;;;8.20;100.00;101048.00;2087316;28;20473;-67
2024/02/23 02:19:10;;;;;;;5.77;3.27;;;;;;;8.14;100.00;101052.34;2085117;28;20223;-67
2024/02/23 02:20:13;;;;;;;7.83;3.60;;;;;;;8.16;100.00;101049.97;2087550;28;20208;-66
2024/02/23 02:21:13;;;;;;;8.40;3.80;;;;;;;7.82;100.00;100993.03;2087343;28;20438;-67
2024/02/23 02:22:14;;;;;;;7.33;3.80;;;;;;;7.99;100.00;101039.06;2087361;28;20987;-67
2024/02/23 02:23:14;;;;;;;14.73;4.63;;;;;;;8.05;100.00;101043.72;2088499;28;20197;-67
2024/02/23 02:24:15;;;;;;;6.80;4.00;;;;;;;8.09;100.00;101058.31;2087148;28;20274;-67
2024/02/23 02:25:15;;;;;;;8.33;3.73;;;;;;;8.03;100.00;101042.56;2087586;28;20196;-67
2024/02/23 02:26:16;;;;;;;15.03;4.17;;;;;;;7.95;100.00;101021.75;2087225;28;20605;-67
2024/02/23 02:27:16;;;;;;;7.80;3.50;;;;;;;8.04;100.00;101047.69;2087727;28;20227;-67
2024/02/23 02:28:17;;;;;;;11.57;4.33;;;;;;;8.07;100.00;101054.38;2087123;28;20691;-66
2024/02/23 02:29:18;;;;;;;6.90;3.93;;;;;;;7.64;100.00;100987.63;2088181;28;20469;-66
2024/02/23 02:30:18;;;;;;;12.70;4.90;;;;;;;8.13;100.00;101047.22;2087130;28;20280;-67
2024/02/23 02:31:19;;;;;;;10.33;4.07;;;;;;;8.11;100.00;101033.81;2086690;28;20685;-67
2024/02/23 02:32:19;;;;;;;12.87;4.27;;;;;;;8.07;100.00;101040.56;2087026;28;20743;-67
2024/02/23 02:33:21;;;;;;;9.87;4.63;;;;;;;7.99;100.00;101042.59;2086615;28;20179;-66
2024/02/23 02:34:21;;;;;;;10.37;4.33;;;;;;;7.52;100.00;100987.31;2087369;28;20176;-68
2024/02/23 02:35:22;;;;;;;6.93;4.07;;;;;;;7.75;100.00;101034.47;2088597;28;20452;-67
2024/02/23 02:36:22;;;;;;;14.30;5.47;;;;;;;7.75;100.00;101042.75;2087400;28;20230;-67
2024/02/23 02:37:23;;;;;;;11.80;4.00;;;;;;;7.90;100.00;101058.81;2095062;28;20825;-66
2024/02/23 02:38:23;;;;;;;11.60;5.00;;;;;;;7.48;100.00;101001.13;2095076;28;20206;-67
2024/02/23 02:39:24;;;;;;;8.03;4.10;;;;;;;7.61;100.00;101035.34;2088056;28;20212;-67
2024/02/23 02:40:24;;;;;;;9.67;4.17;;;;;;;7.72;100.00;101058.16;2088674;28;20202;-67
2024/02/23 02:41:28;;;;;;;7.53;4.13;;;;;;;7.22;100.00;100987.88;2089886;28;20264;-67
2024/02/23 02:42:29;;;;;;;6.65;3.58;;;;;;;7.75;100.00;101059.31;2088413;28;20193;-67
2024/02/23 02:43:31;;;;;;;6.47;4.27;;;;;;;7.78;100.00;101058.50;2087789;28;20186;-66
2024/02/23 02:44:31;;;;;;;11.32;4.10;;;;;;;7.76;100.00;101058.91;2088745;28;20186;-67
2024/02/23 02:45:32;;;;;;;7.57;4.10;;;;;;;7.71;100.00;101053.81;2088537;28;20210;-67
2024/02/23 02:46:33;;;;;;;17.17;4.23;;;;;;;7.63;100.00;101046.00;2087794;28;20190;-66
2024/02/23 02:47:33;;;;;;;9.47;4.07;;;;;;;6.50;100.00;100890.53;2089994;28;20734;-67
2024/02/23 02:48:34;;;;;;;6.40;3.90;;;;;;;7.68;100.00;101049.09;2087823;28;20199;-67
2024/02/23 02:49:34;;;;;;;9.47;4.60;;;;;;;7.71;100.00;101051.06;2088319;28;20239;-67
2024/02/23 02:50:35;;;;;;;9.17;4.70;;;;;;;7.28;100.00;100983.50;2087833;28;20223;-66
2024/02/23 02:51:35;;;;;;;7.30;4.47;;;;;;;7.66;100.00;101045.97;2088069;28;20209;-67
2024/02/23 02:52:37;;;;;;;9.67;4.03;;;;;;;7.64;100.00;101048.31;2088856;28;20183;-67
2024/02/23 02:53:37;;;;;;;18.47;4.57;;;;;;;7.66;100.00;101048.72;2089685;28;20182;-67
2024/02/23 02:54:38;;;;;;;8.13;4.30;;;;;;;7.56;100.00;101033.00;2096037;28;20462;-67
2024/02/23 02:55:42;;;;;;;13.70;3.80;;;;;;;7.55;100.00;101044.44;2096417;28;20194;-67
2024/02/23 02:56:43;;;;;;;17.83;6.22;;;;;;;7.13;100.00;100986.75;2088552;28;20249;-67
2024/02/23 02:57:45;;;;;;;15.65;5.20;;;;;;;7.55;100.00;101056.28;2089557;28;20193;-67
2024/02/23 02:58:45;;;;;;;16.93;5.07;;;;;;;7.59;100.00;101057.00;2088802;28;20177;-67
2024/02/23 02:59:46;;;;;;;10.63;5.17;;;;;;;7.59;100.00;101092.88;2089144;28;21808;-67
2024/02/23 03:00:46;;;;;;;5.33;3.00;;;;;;;7.51;100.00;101040.91;2088419;28;20675;-66
2024/02/23 03:01:47;;;;;;;8.40;3.80;;;;;;;7.37;100.00;101040.97;2088871;28;20319;-66
2024/02/23 03:02:47;;;;;;;5.13;3.23;;;;;;;6.81;100.00;100956.53;2088891;28;20184;-66
2024/02/23 03:03:48;;;;;;;13.77;4.37;;;;;;;7.23;100.00;101033.53;2088626;28;20193;-66
2024/02/23 03:04:49;;;;;;;19.73;3.93;;;;;;;6.69;100.00;100942.41;2088880;28;20183;-66
2024/02/23 03:05:50;;;;;;;9.65;4.28;;;;;;;6.71;100.00;100956.59;2089116;28;20181;-67
2024/02/23 03:06:50;;;;;;;8.87;4.60;;;;;;;7.23;100.00;101005.97;2089381;28;20276;-67
2024/02/23 03:07:51;;;;;;;9.73;4.10;;;;;;;7.55;100.00;101047.19;2088473;28;20254;-67
2024/02/23 03:08:51;;;;;;;7.00;3.73;;;;;;;7.48;100.00;101041.72;2088385;28;20184;-67
2024/02/23 03:09:52;;;;;;;10.87;3.40;;;;;;;7.43;100.00;101040.16;2087950;28;20199;-66
2024/02/23 03:10:52;;;;;;;8.07;3.13;;;;;;;7.02;100.00;100989.53;2095545;28;20268;-66
2024/02/23 03:11:53;;;;;;;4.17;3.27;;;;;;;6.78;100.00;100935.31;2097287;28;20189;-66
2024/02/23 03:12:53;;;;;;;7.10;3.80;;;;;;;7.59;100.00;101061.75;2088608;28;20277;-67
2024/02/23 03:13:53;;;;;;;4.70;2.80;;;;;;;7.57;100.00;101047.56;2088350;28;20195;-66
2024/02/23 03:14:55;;;;;;;6.50;3.30;;;;;;;7.47;100.00;101045.66;2088935;28;21074;-66
2024/02/23 03:15:56;;;;;;;7.13;3.07;;;;;;;7.31;100.00;101043.38;2095217;28;20185;-67
2024/02/23 03:16:56;;;;;;;5.53;3.67;;;;;;;7.31;100.00;101043.38;2095213;28;20977;-67
2024/02/23 03:17:57;;;;;;;7.70;3.40;;;;;;;6.50;100.00;100905.09;2089707;28;20203;-67
2024/02/23 03:18:58;;;;;;;6.30;3.40;;;;;;;7.49;100.00;101052.34;2088414;28;20512;-67
2024/02/23 03:19:58;;;;;;;6.80;3.83;;;;;;;7.56;100.00;101055.06;2088321;28;20606;-66
2024/02/23 03:20:59;;;;;;;7.60;3.60;;;;;;;7.61;100.00;101057.41;2088068;28;20300;-67
2024/02/23 03:22:00;;;;;;;8.20;3.87;;;;;;;7.64;100.00;101056.59;2088037;28;20705;-67
2024/02/23 03:23:03;;;;;;;5.70;3.87;;;;;;;7.65;100.00;101085.78;2088667;28;20568;-66
2024/02/23 03:24:04;;;;;;;9.63;4.17;;;;;;;7.67;100.00;101058.56;2089060;28;20194;-66
2024/02/23 03:25:08;;;;;;;5.50;3.20;;;;;;;7.28;100.00;100989.00;2088102;28;20437;-66
2024/02/23 03:26:08;;;;;;;6.60;3.50;;;;;;;7.69;100.00;101064.44;2088517;28;20195;-66
2024/02/23 03:27:09;;;;;;;11.83;3.97;;;;;;;7.72;100.00;101060.09;2086516;28;20441;-67
2024/02/23 03:28:09;;;;;;;6.63;3.40;;;;;;;7.60;100.00;101041.25;2087994;28;20187;-67
2024/02/23 03:29:10;;;;;;;7.30;3.60;;;;;;;7.65;100.00;101085.78;2088869;28;20213;-67
2024/02/23 03:30:11;;;;;;;6.87;3.63;;;;;;;7.57;100.00;101055.84;2087540;28;20178;-66
2024/02/23 03:31:11;;;;;;;5.30;2.83;;;;;;;7.46;100.00;101061.44;2089089;28;20436;-66
2024/02/23 03:32:12;;;;;;;9.37;3.57;;;;;;;7.35;100.00;101059.88;2088973;28;20249;-67
2024/02/23 03:33:12;;;;;;;5.37;3.47;;;;;;;7.10;100.00;101039.88;2088924;28;20643;-67
2024/02/23 03:34:13;;;;;;;7.97;3.30;;;;;;;7.38;100.00;101061.84;2088059;28;20273;-66
2024/02/23 03:35:13;;;;;;;7.40;3.27;;;;;;;7.31;100.00;101053.59;2088406;28;20192;-66
2024/02/23 03:36:14;;;;;;;5.63;3.20;;;;;;;7.39;100.00;101075.22;2088555;28;20188;-67
2024/02/23 03:37:14;;;;;;;6.33;3.40;;;;;;;7.39;100.00;101066.94;2089346;28;20376;-66
2024/02/23 03:38:15;;;;;;;5.50;3.23;;;;;;;7.38;100.00;101061.84;2088140;28;20694;-66
2024/02/23 03:39:17;;;;;;;7.30;3.00;;;;;;;7.37;100.00;101066.56;2088525;28;20278;-68
2024/02/23 03:40:19;;;;;;;6.30;3.43;;;;;;;7.22;100.00;101036.72;2088686;28;20523;-67
2024/02/23 03:41:19;;;;;;;4.73;2.87;;;;;;;7.21;100.00;101044.19;2086808;28;20790;-66
2024/02/23 03:42:20;;;;;;;8.07;3.47;;;;;;;7.36;100.00;101094.53;2088236;28;20463;-66
2024/02/23 03:43:20;;;;;;;8.83;3.07;;;;;;;7.37;100.00;101063.81;2088971;28;20200;-66
2024/02/23 03:44:21;;;;;;;4.40;2.90;;;;;;;7.33;100.00;101065.78;2086609;28;20198;-67
2024/02/23 03:45:21;;;;;;;7.20;3.47;;;;;;;7.36;100.00;101061.44;2088985;28;20211;-66
2024/02/23 03:46:22;;;;;;;6.10;3.10;;;;;;;7.36;100.00;101069.72;2088063;28;20256;-67
2024/02/23 03:47:22;;;;;;;9.63;3.77;;;;;;;7.37;100.00;101068.53;2088709;28;20546;-67
2024/02/23 03:48:23;;;;;;;6.27;3.57;;;;;;;7.35;100.00;101070.91;2087362;28;20673;-66
2024/02/23 03:49:23;;;;;;;8.17;3.70;;;;;;;7.34;100.00;101072.88;2088888;28;20195;-67
2024/02/23 03:50:24;;;;;;;9.47;3.27;;;;;;;7.31;100.00;101079.19;2087691;28;20203;-67
2024/02/23 03:51:24;;;;;;;6.33;3.20;;;;;;;6.94;100.00;101025.78;2095531;28;20373;-67
2024/02/23 03:52:25;;;;;;;8.67;3.10;;;;;;;7.29;100.00;101078.03;2096225;28;20693;-67
2024/02/23 03:53:25;;;;;;;5.27;3.23;;;;;;;6.78;100.00;101012.44;2089075;28;20194;-67
2024/02/23 03:54:26;;;;;;;6.83;3.73;;;;;;;6.48;100.00;100997.53;2088780;28;20327;-66
2024/02/23 03:55:26;;;;;;;5.93;2.70;;;;;;;6.69;100.00;101022.28;2089009;28;20638;-67
2024/02/23 03:56:27;;;;;;;6.77;3.77;;;;;;;7.11;100.00;101077.28;2088182;28;20690;-67
2024/02/23 03:57:27;;;;;;;6.20;3.50;;;;;;;7.12;100.00;101076.13;2087624;28;20241;-67
2024/02/23 03:58:28;;;;;;;8.00;3.73;;;;;;;7.09;100.00;101061.16;2087569;28;20334;-66
2024/02/23 03:59:28;;;;;;;10.30;3.90;;;;;;;6.95;100.00;101046.63;2088612;28;20185;-67
2024/02/23 04:00:29;;;;;;;7.27;4.00;;;;;;;6.61;100.00;100995.97;2089117;28;20716;-66
2024/02/23 04:01:29;;;;;;;6.50;3.50;;;;;;;7.17;100.00;101075.72;2088835;28;20337;-67
2024/02/23 04:02:30;;;;;;;5.37;3.50;;;;;;;7.14;100.00;101065.47;2087589;28;20204;-66
2024/02/23 04:03:30;;;;;;;3.63;2.50;;;;;;;7.14;100.00;101068.22;2087539;28;20196;-66
2024/02/23 04:04:31;;;;;;;5.63;3.43;;;;;;;7.09;100.00;101066.69;2088052;28;20207;-67
2024/02/23 04:05:32;;;;;;;6.67;3.00;;;;;;;6.63;100.00;100990.81;2088613;28;20560;-66
2024/02/23 04:06:34;;;;;;;6.97;3.67;;;;;;;7.12;100.00;101062.34;2089068;28;20690;-66
2024/02/23 04:07:34;;;;;;;4.33;2.70;;;;;;;6.99;100.00;101053.72;2096422;28;20194;-67
2024/02/23 04:08:35;;;;;;;6.27;3.37;;;;;;;7.04;100.00;101061.56;2095875;28;20440;-67
2024/02/23 04:09:35;;;;;;;8.87;3.97;;;;;;;7.06;100.00;101061.16;2087931;28;20654;-66
2024/02/23 04:10:36;;;;;;;5.67;3.40;;;;;;;6.83;100.00;101036.81;2088181;28;20223;-66
2024/02/23 04:11:37;;;;;;;7.37;3.67;;;;;;;7.07;100.00;101062.75;2087699;28;20621;-66
2024/02/23 04:12:37;;;;;;;6.07;3.23;;;;;;;7.05;100.00;101065.09;2089437;28;20233;-67
2024/02/23 04:13:37;;;;;;;8.40;3.50;;;;;;;6.85;100.00;101025.41;2088417;28;20213;-67
2024/02/23 04:14:40;;;;;;;5.00;2.83;;;;;;;7.04;100.00;101056.06;2087786;28;20578;-67
2024/02/23 04:15:40;;;;;;;6.07;3.03;;;;;;;7.03;100.00;101071.00;2088397;28;20210;-67
2024/02/23 04:16:41;;;;;;;7.93;3.43;;;;;;;7.04;100.00;101060.78;2087979;28;20449;-67
2024/02/23 04:17:41;;;;;;;10.90;3.33;;;;;;;7.04;100.00;101074.56;2095993;28;20244;-66
2024/02/23 04:18:42;;;;;;;7.10;3.27;;;;;;;7.04;100.00;101067.09;2096867;28;20186;-66
2024/02/23 04:19:43;;;;;;;10.73;4.03;;;;;;;6.86;100.00;101071.03;2087971;28;20600;-66
2024/02/23 04:20:43;;;;;;;6.72;3.55;;;;;;;7.00;100.00;101068.25;2088149;28;20191;-67
2024/02/23 04:21:44;;;;;;;7.30;3.37;;;;;;;7.03;100.00;101067.47;2087903;28;20189;-66
2024/02/23 04:22:45;;;;;;;6.20;3.47;;;;;;;6.61;100.00;101016.00;2088749;28;20194;-66
2024/02/23 04:23:45;;;;;;;4.97;2.97;;;;;;;6.99;100.00;101081.28;2088764;28;20181;-67
2024/02/23 04:24:45;;;;;;;6.50;2.90;;;;;;;7.01;100.00;101083.59;2089076;28;20625;-66
2024/02/23 04:25:46;;;;;;;5.17;3.23;;;;;;;6.69;100.00;101056.13;2088210;28;20216;-67
2024/02/23 04:26:47;;;;;;;5.67;3.33;;;;;;;6.51;100.00;101016.03;2087654;28;20564;-67
2024/02/23 04:27:47;;;;;;;5.37;3.40;;;;;;;5.79;100.00;100897.34;2088352;28;20185;-67
2024/02/23 04:28:48;;;;;;;5.20;3.17;;;;;;;6.98;100.00;101081.66;2086613;28;20245;-66
2024/02/23 04:29:48;;;;;;;8.30;3.70;;;;;;;5.93;100.00;100920.16;2087894;28;20651;-66
2024/02/23 04:30:49;;;;;;;6.90;3.63;;;;;;;6.98;100.00;101084.41;2089026;28;20183;-66
2024/02/23 04:31:49;;;;;;;6.97;3.80;;;;;;;6.92;100.00;101077.75;2095900;28;20687;-66
2024/02/23 04:32:50;;;;;;;5.50;3.00;;;;;;;6.55;100.00;101027.81;2095868;28;20248;-66
2024/02/23 04:33:50;;;;;;;7.70;3.60;;;;;;;6.82;100.00;101084.81;2088386;28;20270;-66
2024/02/23 04:34:51;;;;;;;6.93;3.57;;;;;;;6.78;100.00;101092.31;2087415;28;20667;-66
2024/02/23 04:35:51;;;;;;;6.87;3.47;;;;;;;6.71;100.00;101089.56;2087062;28;20824;-67
2024/02/23 04:36:52;;;;;;;6.93;3.10;;;;;;;6.69;100.00;101088.38;2089287;28;20183;-66
2024/02/23 04:37:52;;;;;;;10.37;3.40;;;;;;;6.53;100.00;101060.47;2088621;28;20274;-67
2024/02/23 04:38:53;;;;;;;4.43;2.97;;;;;;;6.61;100.00;101089.59;2087858;28;20706;-66
2024/02/23 04:39:53;;;;;;;6.30;3.40;;;;;;;6.16;100.00;101016.81;2087252;28;20398;-66
2024/02/23 04:40:54;;;;;;;6.17;2.30;;;;;;;6.53;100.00;101080.53;2088406;28;20178;-66
2024/02/23 04:41:54;;;;;;;6.40;2.87;;;;;;;4.98;100.00;100841.50;2088297;28;20182;-66
2024/02/23 04:42:55;;;;;;;7.23;3.80;;;;;;;6.45;100.00;101084.47;2089068;28;20309;-66